createdAt,value
2018-12-15T00:02:00.157Z,58.81
2018-12-15T00:04:30.816Z,58.66
2018-12-15T00:07:04.133Z,58.76
2018-12-15T00:12:14.365Z,58.78
2018-12-15T00:14:42.940Z,58.55
2018-12-15T00:17:11.332Z,58.72
2018-12-15T00:19:39.710Z,58.26
2018-12-15T00:24:50.038Z,58.76
2018-12-15T00:27:18.482Z,58.79
2018-12-15T00:29:46.890Z,58.51
2018-12-15T00:32:15.273Z,59.07
2018-12-15T00:37:25.571Z,58.29
2018-12-15T00:39:54.078Z,58.83
2018-12-15T00:45:16.158Z,58.48
2018-12-15T00:47:44.538Z,58.76
2018-12-15T00:50:13.126Z,58.37
2018-12-15T00:52:41.542Z,58.59
2018-12-15T00:55:09.981Z,58.78
2018-12-15T00:57:38.437Z,58.42
2018-12-15T01:00:07.214Z,59.01
2018-12-15T01:05:19.080Z,58.93
2018-12-15T01:07:47.478Z,58.71
2018-12-15T01:10:15.879Z,58.81
2018-12-15T01:12:44.304Z,58.81
2018-12-15T01:15:13.754Z,58.53
2018-12-15T01:17:42.171Z,58.27
2018-12-15T01:20:10.520Z,59.02
2018-12-15T01:22:38.856Z,58.24
2018-12-15T01:25:07.569Z,58.18
2018-12-15T01:27:35.912Z,58.60
2018-12-15T01:30:04.812Z,58.61
2018-12-15T01:32:33.160Z,58.46
2018-12-15T01:35:01.533Z,58.80
2018-12-15T01:37:29.938Z,58.98
2018-12-15T01:39:58.324Z,58.27
2018-12-15T01:42:26.741Z,58.58
2018-12-15T01:47:36.849Z,58.68
2018-12-15T01:50:05.623Z,58.73
2018-12-15T01:52:34.031Z,59.00
2018-12-15T01:55:02.787Z,58.13
2018-12-15T01:57:31.085Z,58.23
2018-12-15T01:59:59.448Z,58.99
2018-12-15T02:02:28.242Z,58.47
2018-12-15T02:04:56.609Z,58.20
2018-12-15T02:07:25.047Z,58.52
2018-12-15T02:09:53.413Z,58.70
2018-12-15T02:12:21.830Z,58.68
2018-12-15T02:14:50.227Z,58.74
2018-12-15T02:17:18.536Z,58.58
2018-12-15T02:19:47.010Z,58.85
2018-12-15T02:22:15.400Z,59.01
2018-12-15T02:24:43.720Z,58.76
2018-12-15T02:27:12.078Z,58.58
2018-12-15T02:32:22.254Z,58.62
2018-12-15T02:34:50.634Z,58.35
2018-12-15T02:37:19.088Z,58.70
2018-12-15T02:39:47.379Z,58.01
2018-12-15T02:42:15.705Z,58.87
2018-12-15T02:44:44.034Z,58.71
2018-12-15T02:47:12.378Z,58.59
2018-12-15T02:52:22.474Z,58.51
2018-12-15T02:57:33.305Z,58.29
2018-12-15T03:00:03.604Z,58.78
2018-12-15T03:05:14.814Z,58.22
2018-12-15T03:07:43.184Z,58.47
2018-12-15T03:10:11.877Z,58.49
2018-12-15T03:12:40.346Z,58.61
2018-12-15T03:15:08.779Z,58.68
2018-12-15T03:17:37.292Z,58.79
2018-12-15T03:20:07.252Z,58.01
2018-12-15T03:22:35.555Z,58.40
2018-12-15T03:27:46.183Z,58.00
2018-12-15T03:30:14.662Z,58.50
2018-12-15T03:32:43.042Z,58.30
2018-12-15T03:35:11.448Z,58.63
2018-12-15T03:37:39.795Z,58.82
2018-12-15T03:40:08.238Z,58.02
2018-12-15T03:42:36.664Z,58.77
2018-12-15T03:45:05.500Z,58.46
2018-12-15T03:47:33.847Z,58.13
2018-12-15T03:50:02.823Z,58.74
2018-12-15T03:52:31.132Z,58.69
2018-12-15T03:54:59.504Z,58.62
2018-12-15T03:57:27.856Z,58.85
2018-12-15T03:59:56.245Z,58.78
2018-12-15T04:02:25.643Z,58.04
2018-12-15T04:04:54.309Z,58.82
2018-12-15T04:07:22.620Z,58.32
2018-12-15T04:09:50.962Z,58.35
2018-12-15T04:12:19.304Z,58.07
2018-12-15T04:14:47.693Z,58.76
2018-12-15T04:17:16.027Z,58.18
2018-12-15T04:19:44.300Z,58.58
2018-12-15T04:22:20.149Z,58.30
2018-12-15T04:24:48.481Z,58.56
2018-12-15T04:27:16.871Z,58.06
2018-12-15T04:32:28.918Z,58.84
2018-12-15T04:34:57.263Z,58.53
2018-12-15T04:40:08.643Z,58.58
2018-12-15T04:42:37.042Z,58.55
2018-12-15T04:45:06.001Z,58.41
2018-12-15T04:47:34.364Z,58.64
2018-12-15T04:50:03.082Z,58.49
2018-12-15T04:52:31.406Z,58.38
2018-12-15T04:54:59.706Z,58.57
2018-12-15T04:57:28.037Z,58.79
2018-12-15T04:59:56.495Z,58.59
2018-12-15T05:05:07.917Z,58.50
2018-12-15T05:07:36.270Z,58.95
2018-12-15T05:10:05.543Z,58.72
2018-12-15T05:12:33.914Z,58.21
2018-12-15T05:15:02.712Z,58.42
2018-12-15T05:20:12.991Z,58.90
2018-12-15T05:22:41.327Z,58.44
2018-12-15T05:27:52.140Z,58.36
2018-12-15T05:30:20.462Z,58.06
2018-12-15T05:32:48.897Z,58.57
2018-12-15T05:35:17.229Z,58.19
2018-12-15T05:37:45.560Z,58.99
2018-12-15T05:40:14.001Z,58.44
2018-12-15T05:42:42.321Z,58.08
2018-12-15T05:45:10.764Z,58.58
2018-12-15T05:47:39.125Z,58.45
2018-12-15T05:50:07.735Z,58.01
2018-12-15T05:52:36.020Z,58.64
2018-12-15T05:55:04.510Z,58.42
2018-12-15T05:57:32.869Z,58.75
2018-12-15T06:00:01.491Z,57.92
2018-12-15T06:02:30.134Z,58.33
2018-12-15T06:04:58.941Z,58.37
2018-12-15T06:07:27.258Z,57.87
2018-12-15T06:09:55.660Z,58.65
2018-12-15T06:12:24.857Z,58.23
2018-12-15T06:14:53.242Z,58.40
2018-12-15T06:17:21.564Z,58.10
2018-12-15T06:19:49.877Z,58.28
2018-12-15T06:22:18.244Z,58.61
2018-12-15T06:24:46.541Z,58.67
2018-12-15T06:27:14.868Z,58.29
2018-12-15T06:29:43.207Z,57.87
2018-12-15T06:32:11.519Z,58.30
2018-12-15T06:34:39.891Z,57.89
2018-12-15T06:37:08.207Z,57.87
2018-12-15T06:39:36.593Z,57.79
2018-12-15T06:42:04.952Z,57.78
2018-12-15T06:44:33.328Z,57.77
2018-12-15T06:47:02.142Z,58.56
2018-12-15T06:49:30.890Z,57.92
2018-12-15T06:51:59.139Z,57.90
2018-12-15T06:57:09.834Z,58.44
2018-12-15T06:59:38.235Z,58.43
2018-12-15T07:02:06.595Z,58.50
2018-12-15T07:04:34.972Z,58.37
2018-12-15T07:07:03.347Z,58.43
2018-12-15T07:09:31.715Z,57.97
2018-12-15T07:12:00.167Z,57.64
2018-12-15T07:14:28.873Z,58.23
2018-12-15T07:16:57.212Z,57.77
2018-12-15T07:19:25.577Z,57.61
2018-12-15T07:24:35.837Z,58.52
2018-12-15T07:27:04.265Z,58.24
2018-12-15T07:32:14.349Z,57.93
2018-12-15T07:37:24.463Z,57.71
2018-12-15T07:39:52.816Z,57.84
2018-12-15T07:42:22.266Z,58.28
2018-12-15T07:44:50.647Z,57.79
2018-12-15T07:47:19.027Z,58.29
2018-12-15T07:49:47.356Z,58.09
2018-12-15T07:52:15.755Z,58.03
2018-12-15T07:54:44.131Z,57.99
2018-12-15T07:57:12.432Z,58.68
2018-12-15T07:59:40.787Z,58.62
2018-12-15T08:02:09.103Z,57.76
2018-12-15T08:04:37.428Z,58.08
2018-12-15T08:07:05.785Z,58.36
2018-12-15T08:09:34.797Z,58.55
2018-12-15T08:12:09.306Z,58.34
2018-12-15T08:17:19.487Z,57.95
2018-12-15T08:19:47.811Z,58.12
2018-12-15T08:22:16.244Z,58.12
2018-12-15T08:24:44.587Z,58.45
2018-12-15T08:27:12.949Z,58.58
2018-12-15T08:29:42.067Z,58.40
2018-12-15T08:32:10.389Z,58.33
2018-12-15T08:34:38.781Z,58.13
2018-12-15T08:39:48.902Z,58.47
2018-12-15T08:44:59.123Z,57.99
2018-12-15T08:47:27.500Z,57.55
2018-12-15T08:49:55.875Z,57.90
2018-12-15T08:52:24.530Z,57.95
2018-12-15T08:54:53.055Z,57.83
2018-12-15T08:57:25.034Z,58.16
2018-12-15T08:59:54.454Z,57.62
2018-12-15T09:02:22.962Z,57.95
2018-12-15T09:07:33.209Z,57.83
2018-12-15T09:10:02.242Z,57.62
2018-12-15T09:12:31.699Z,58.00
2018-12-15T09:17:43.218Z,58.24
2018-12-15T09:20:12.483Z,57.81
2018-12-15T09:22:40.960Z,57.74
2018-12-15T09:25:09.404Z,58.39
2018-12-15T09:30:21.460Z,57.85
2018-12-15T09:32:49.771Z,58.00
2018-12-15T09:35:24.993Z,58.17
2018-12-15T09:38:29.435Z,58.07
2018-12-15T09:40:57.779Z,58.28
2018-12-15T09:43:26.331Z,58.22
2018-12-15T09:45:54.717Z,58.33
2018-12-15T09:48:23.096Z,57.85
2018-12-15T09:50:51.647Z,57.76
2018-12-15T09:53:20.008Z,58.08
2018-12-15T09:55:48.342Z,57.83
2018-12-15T10:00:58.611Z,57.44
2018-12-15T10:03:26.953Z,57.75
2018-12-15T10:05:55.341Z,57.83
2018-12-15T10:08:23.695Z,58.28
2018-12-15T10:13:33.817Z,57.81
2018-12-15T10:16:02.230Z,57.95
2018-12-15T10:18:31.057Z,58.27
2018-12-15T10:20:59.363Z,57.73
2018-12-15T10:23:27.746Z,57.82
2018-12-15T10:25:56.076Z,57.96
2018-12-15T10:28:24.437Z,57.82
2018-12-15T10:33:46.492Z,57.57
2018-12-15T10:36:14.923Z,57.85
2018-12-15T10:38:44.381Z,57.95
2018-12-15T10:41:12.721Z,57.92
2018-12-15T10:43:41.665Z,57.57
2018-12-15T10:46:10.005Z,57.64
2018-12-15T10:48:40.663Z,57.68
2018-12-15T10:51:09.070Z,57.75
2018-12-15T10:53:37.415Z,57.88
2018-12-15T10:56:05.832Z,57.49
2018-12-15T10:58:34.318Z,58.04
2018-12-15T11:01:08.387Z,58.05
2018-12-15T11:03:36.817Z,57.63
2018-12-15T11:06:05.205Z,57.25
2018-12-15T11:08:33.712Z,57.75
2018-12-15T11:13:44.148Z,57.62
2018-12-15T11:16:12.593Z,56.81
2018-12-15T11:21:22.777Z,56.46
2018-12-15T11:23:51.158Z,56.00
2018-12-15T11:29:01.365Z,55.20
2018-12-15T11:31:31.292Z,55.27
2018-12-15T11:33:59.984Z,54.35
2018-12-15T11:36:29.262Z,54.11
2018-12-15T11:38:57.698Z,53.79
2018-12-15T11:41:26.160Z,53.24
2018-12-15T11:43:54.720Z,53.05
2018-12-15T11:46:23.088Z,52.51
2018-12-15T11:48:51.636Z,52.21
2018-12-15T11:51:20.271Z,51.56
2018-12-15T11:53:48.634Z,51.59
2018-12-15T11:56:18.553Z,50.84
2018-12-15T12:01:29.975Z,49.96
2018-12-15T12:03:58.431Z,49.65
2018-12-15T12:09:08.566Z,49.06
2018-12-15T12:11:38.167Z,49.11
2018-12-15T12:14:06.553Z,48.28
2018-12-15T12:16:35.030Z,48.84
2018-12-15T12:19:03.496Z,48.82
2018-12-15T12:21:31.877Z,48.54
2018-12-15T12:24:00.269Z,48.00
2018-12-15T12:26:31.229Z,47.98
2018-12-15T12:28:59.602Z,48.47
2018-12-15T12:31:27.943Z,48.50
2018-12-15T12:33:56.293Z,48.69
2018-12-15T12:36:24.806Z,48.51
2018-12-15T12:38:53.246Z,47.43
2018-12-15T12:41:21.681Z,47.41
2018-12-15T12:43:50.082Z,46.63
2018-12-15T12:46:18.416Z,46.41
2018-12-15T12:48:46.834Z,45.61
2018-12-15T12:51:15.155Z,45.80
2018-12-15T12:53:43.532Z,45.81
2018-12-15T12:56:11.873Z,45.06
2018-12-15T12:58:40.456Z,44.87
2018-12-15T13:01:08.973Z,44.01
2018-12-15T13:03:37.306Z,44.25
2018-12-15T13:06:05.675Z,44.17
2018-12-15T13:08:34.164Z,43.91
2018-12-15T13:11:02.686Z,44.36
2018-12-15T13:13:31.070Z,44.46
2018-12-15T13:15:59.450Z,43.77
2018-12-15T13:18:27.824Z,43.81
2018-12-15T13:20:56.397Z,44.16
2018-12-15T13:23:24.783Z,44.40
2018-12-15T13:25:53.142Z,43.77
2018-12-15T13:28:21.535Z,43.61
2018-12-15T13:30:49.842Z,42.97
2018-12-15T13:33:31.696Z,43.10
2018-12-15T13:36:00.478Z,42.57
2018-12-15T13:38:28.846Z,42.18
2018-12-15T13:40:57.427Z,42.21
2018-12-15T13:43:25.821Z,41.94
2018-12-15T13:45:54.177Z,41.36
2018-12-15T13:48:22.499Z,41.12
2018-12-15T13:50:50.855Z,41.34
2018-12-15T13:53:19.161Z,41.54
2018-12-15T13:55:47.538Z,41.74
2018-12-15T13:58:15.923Z,41.27
2018-12-15T14:00:44.295Z,41.35
2018-12-15T14:03:12.760Z,41.43
2018-12-15T14:05:41.038Z,42.19
2018-12-15T14:08:09.428Z,42.68
2018-12-15T14:10:38.212Z,42.16
2018-12-15T14:13:06.510Z,43.02
2018-12-15T14:15:34.954Z,43.23
2018-12-15T14:18:03.316Z,43.23
2018-12-15T14:20:33.456Z,42.85
2018-12-15T14:23:01.869Z,43.16
2018-12-15T14:25:30.190Z,43.06
2018-12-15T14:27:58.519Z,43.03
2018-12-15T14:30:26.949Z,43.58
2018-12-15T14:32:55.402Z,43.62
2018-12-15T14:35:23.756Z,43.17
2018-12-15T14:40:33.969Z,43.14
2018-12-15T14:43:02.459Z,43.32
2018-12-15T14:45:30.939Z,43.13
2018-12-15T14:47:59.393Z,43.20
2018-12-15T14:50:27.760Z,43.18
2018-12-15T14:52:56.140Z,43.89
2018-12-15T14:58:06.808Z,44.41
2018-12-15T15:00:35.260Z,44.12
2018-12-15T15:05:45.520Z,43.75
2018-12-15T15:08:13.999Z,44.10
2018-12-15T15:10:42.378Z,43.69
2018-12-15T15:13:10.774Z,43.71
2018-12-15T15:15:39.769Z,44.09
2018-12-15T15:18:08.143Z,44.51
2018-12-15T15:20:36.599Z,44.43
2018-12-15T15:23:04.935Z,44.13
2018-12-15T15:25:33.309Z,44.60
2018-12-15T15:28:01.611Z,44.51
2018-12-15T15:30:29.946Z,44.78
2018-12-15T15:32:58.405Z,44.85
2018-12-15T15:35:26.857Z,44.85
2018-12-15T15:37:55.179Z,45.13
2018-12-15T15:40:23.582Z,45.21
2018-12-15T15:45:34.047Z,45.73
2018-12-15T15:48:02.500Z,46.04
2018-12-15T15:50:36.471Z,45.86
2018-12-15T15:53:02.430Z,46.06
2018-12-15T15:55:30.832Z,46.14
2018-12-15T15:57:59.284Z,46.50
2018-12-15T16:00:28.709Z,46.65
2018-12-15T16:02:57.238Z,47.26
2018-12-15T16:05:25.892Z,47.24
2018-12-15T16:07:54.420Z,47.19
2018-12-15T16:10:22.877Z,47.29
2018-12-15T16:12:51.274Z,47.73
2018-12-15T16:15:19.623Z,47.72
2018-12-15T16:17:48.170Z,47.63
2018-12-15T16:20:16.627Z,47.72
2018-12-15T16:22:44.983Z,47.94
2018-12-15T16:25:13.496Z,48.01
2018-12-15T16:27:42.243Z,47.26
2018-12-15T16:30:12.475Z,48.10
2018-12-15T16:32:40.988Z,47.91
2018-12-15T16:35:09.759Z,47.81
2018-12-15T16:37:38.277Z,47.99
2018-12-15T16:42:49.970Z,48.40
2018-12-15T16:45:18.319Z,48.09
2018-12-15T16:47:46.674Z,48.80
2018-12-15T16:50:15.065Z,48.87
2018-12-15T16:52:44.914Z,48.34
2018-12-15T16:55:13.668Z,48.33
2018-12-15T17:00:24.946Z,48.45
2018-12-15T17:02:53.958Z,48.85
2018-12-15T17:08:04.897Z,48.64
2018-12-15T17:10:35.072Z,49.31
2018-12-15T17:13:04.264Z,49.03
2018-12-15T17:15:32.683Z,49.48
2018-12-15T17:18:01.474Z,49.42
2018-12-15T17:20:30.742Z,49.18
2018-12-15T17:22:59.184Z,49.46
2018-12-15T17:25:27.733Z,49.69
2018-12-15T17:27:56.203Z,49.22
2018-12-15T17:30:24.659Z,49.22
2018-12-15T17:32:53.267Z,49.63
2018-12-15T17:35:21.888Z,49.92
2018-12-15T17:40:32.928Z,50.22
2018-12-15T17:43:01.508Z,49.80
2018-12-15T17:48:11.771Z,50.78
2018-12-15T17:50:40.152Z,50.19
2018-12-15T17:53:08.580Z,50.40
2018-12-15T17:55:37.249Z,50.55
2018-12-15T17:58:05.616Z,50.50
2018-12-15T18:03:16.738Z,50.32
2018-12-15T18:08:27.211Z,50.52
2018-12-15T18:10:56.214Z,50.49
2018-12-15T18:16:06.607Z,50.76
2018-12-15T18:18:35.543Z,50.99
2018-12-15T18:21:09.784Z,51.05
2018-12-15T18:23:36.206Z,50.54
2018-12-15T18:26:05.888Z,50.82
2018-12-15T18:28:35.726Z,50.81
2018-12-15T18:31:04.202Z,51.80
2018-12-15T18:33:36.983Z,51.34
2018-12-15T18:36:03.597Z,51.28
2018-12-15T18:38:32.351Z,51.30
2018-12-15T18:43:43.996Z,51.18
2018-12-15T18:46:12.728Z,51.88
2018-12-15T18:48:41.129Z,51.70
2018-12-15T18:51:09.543Z,51.65
2018-12-15T18:56:16.953Z,51.53
2018-12-15T18:58:45.643Z,51.72
2018-12-15T19:01:14.024Z,51.81
2018-12-15T19:03:42.419Z,52.41
2018-12-15T19:06:10.913Z,52.34
2018-12-15T19:11:20.739Z,51.54
2018-12-15T19:16:31.398Z,51.93
2018-12-15T19:18:59.779Z,51.87
2018-12-15T19:21:28.146Z,51.86
2018-12-15T19:26:36.378Z,51.84
2018-12-15T19:29:04.883Z,51.74
2018-12-15T19:31:33.252Z,51.84
2018-12-15T19:34:01.582Z,52.31
2018-12-15T19:39:12.023Z,51.66
2018-12-15T19:41:40.681Z,51.73
2018-12-15T19:44:09.586Z,52.86
2018-12-15T19:46:37.975Z,51.86
2018-12-15T19:51:48.150Z,52.02
2018-12-15T19:54:16.499Z,52.59
2018-12-15T19:59:26.646Z,52.77
2018-12-15T20:01:55.567Z,52.37
2018-12-15T20:04:23.921Z,52.00
2018-12-15T20:06:52.447Z,52.56
2018-12-15T20:12:02.635Z,52.74
2018-12-15T20:14:31.079Z,52.50
2018-12-15T20:16:59.774Z,52.32
2018-12-15T20:19:29.323Z,52.17
2018-12-15T20:21:58.078Z,52.32
2018-12-15T20:27:09.686Z,52.58
2018-12-15T20:29:38.215Z,52.61
2018-12-15T20:32:06.656Z,52.63
2018-12-15T20:34:36.905Z,52.36
2018-12-15T20:39:47.846Z,52.67
2018-12-15T20:42:16.999Z,52.77
2018-12-15T20:47:28.165Z,52.32
2018-12-15T20:49:57.025Z,52.68
2018-12-15T20:55:07.483Z,53.23
2018-12-15T20:57:36.044Z,53.25
2018-12-15T21:00:07.927Z,52.96
2018-12-15T21:02:37.646Z,52.38
2018-12-15T21:07:49.175Z,52.98
2018-12-15T21:10:18.092Z,53.15
2018-12-15T21:12:46.866Z,53.56
2018-12-15T21:18:05.566Z,52.62
2018-12-15T21:20:35.270Z,53.53
2018-12-15T21:23:03.762Z,52.73
2018-12-15T21:28:16.099Z,52.90
2018-12-15T21:30:44.743Z,53.30
2018-12-15T21:33:13.956Z,52.67
2018-12-15T21:35:42.279Z,53.70
2018-12-15T21:38:10.670Z,52.83
2018-12-15T21:43:18.149Z,53.30
2018-12-15T21:45:46.601Z,53.16
2018-12-15T21:50:56.814Z,53.72
2018-12-15T21:53:25.306Z,52.97
2018-12-15T21:58:36.821Z,53.86
2018-12-15T22:01:09.209Z,53.03
2018-12-15T22:03:38.981Z,53.30
2018-12-15T22:06:07.502Z,53.49
2018-12-15T22:08:36.986Z,53.88
2018-12-15T22:11:05.348Z,53.90
2018-12-15T22:16:15.526Z,54.00
2018-12-15T22:18:44.064Z,54.12
2018-12-15T22:21:12.545Z,53.73
2018-12-15T22:23:41.040Z,53.64
2018-12-15T22:26:09.551Z,53.72
2018-12-15T22:31:21.736Z,53.54
2018-12-15T22:36:32.283Z,53.61
2018-12-15T22:39:01.039Z,53.99
2018-12-15T22:41:29.461Z,54.07
2018-12-15T22:43:57.904Z,53.48
2018-12-15T22:46:26.209Z,53.08
2018-12-15T22:48:54.641Z,54.08
2018-12-15T22:51:23.385Z,53.23
2018-12-15T22:53:51.724Z,53.17
2018-12-15T22:56:20.178Z,53.41
2018-12-15T22:58:48.577Z,54.13
2018-12-15T23:01:17.361Z,53.17
2018-12-15T23:03:47.797Z,53.61
2018-12-15T23:06:16.152Z,54.30
2018-12-15T23:08:44.678Z,54.34
2018-12-15T23:11:12.994Z,53.64
2018-12-15T23:13:41.540Z,53.81
2018-12-15T23:18:51.836Z,53.53
2018-12-15T23:21:20.204Z,53.40
2018-12-15T23:23:48.571Z,53.91
2018-12-15T23:26:16.961Z,53.57
2018-12-15T23:31:27.472Z,54.16
2018-12-15T23:33:55.839Z,54.23
2018-12-15T23:36:24.221Z,53.57
2018-12-15T23:38:52.696Z,53.65
2018-12-15T23:44:03.541Z,54.35
2018-12-15T23:46:31.895Z,54.50
2018-12-15T23:49:00.513Z,53.90
2018-12-15T23:51:29.000Z,54.47
2018-12-15T23:53:57.434Z,53.45
2018-12-15T23:56:25.718Z,53.94
2018-12-15T23:58:54.091Z,54.01
